Jewel Of The Seas — C6FW9 — position and weather

sailwx.info

Track history (hours):
 
Tides and Currents Weather Stations Pressure Air Temp Water Temp Dewpoint Dewpoint Depression Visibility Wind Speed Wind Dir Waves Ship Positions

Jewel Of The Seas

Operator: Royal Caribbean Cruises Ltd

Last reported at 2019-Apr-24 09:00 UTC. Time now 2019-Apr-25 10:08 UTC.
Position N 37°47' E 016°02'.

Length 290 m; draft 8.6 m.

Type: Passenger vessel. MMSI: 311583000.

Date/timePositionNaut miles runAvg speedWind from/ knotsBaromVisibWave heightAir tempDewpointWater temp
2019-Apr-24 09:00N 37°47' E 016°02'2218.9
2019-Apr-24 07:50N 37°57' E 015°38'619.6
2019-Apr-24 07:30N 38°04' E 015°35'917.0
2019-Apr-24 07:00N 38°12' E 015°36'815.6
2019-Apr-24 06:30N 38°19' E 015°40'918.9
2019-Apr-24 06:00N 38°28' E 015°35'1019.8
2019-Apr-24 05:30N 38°37' E 015°30'1020.2
2019-Apr-24 05:01N 38°46' E 015°25'1019.6
2019-Apr-24 04:30N 38°54' E 015°18'7820.1
2019-Apr-24 00:37N 39°50' E 014°07'220.1
2019-Apr-24 00:30N 39°52' E 014°05'2120.3
2019-Apr-23 23:28N 40°07' E 013°46'1320.2
2019-Apr-23 22:49N 40°16' E 013°34'620.0
2019-Apr-23 22:30N 40°20' E 013°28'1020.0
2019-Apr-23 22:00N 40°28' E 013°19'1019.9
2019-Apr-23 21:30N 40°35' E 013°09'10819.5
2019-Apr-23 16:00N 42°00' E 011°42'126 6.1 140 / 281007.510.8 17.713.316.2
2019-Apr-22 19:18N 40°22' E 013°26'412.7
2019-Apr-22 19:00N 40°18' E 013°24'3220.9 130 / 301007.5 5.4 16.712.315.6
2019-Apr-22 17:28N 39°58' E 013°56'8618.2
2019-Apr-22 12:43N 38°56' E 015°14'418.2
2019-Apr-22 12:30N 38°53' E 015°18'918.3
2019-Apr-22 12:00N 38°45' E 015°24'918.4
2019-Apr-22 11:31N 38°38' E 015°30'918.0
2019-Apr-22 11:01N 38°29' E 015°35'918.2
2019-Apr-22 10:30N 38°21' E 015°40'714.2
2019-Apr-22 10:00N 38°14' E 015°38'815.8
2019-Apr-22 09:30N 38°07' E 015°36'1018.9
2019-Apr-22 09:00N 37°57' E 015°37'918.1
2019-Apr-22 08:29N 37°51' E 015°46'15418.2
2019-Apr-22 00:00N 39°30' E 018°18'14520.7 170 / 241021.6 5.4 15.911.316.3
2019-Apr-21 17:00N 41°54' E 018°36'45 1.9 190 / 121022.610.8 16.912.916.5
2019-Apr-20 18:00N 42°30' E 018°00'75 4.2 300 / 141024.627.0 18.210.915.2
2019-Apr-20 00:00N 41°18' E 018°30'10815.5 350 / 101026.610.8 16.411.415.9
2019-Apr-19 17:00N 39°36' E 019°18'21315.2 340 / 231025.627.0 17.1 9.816.1
2019-Apr-19 03:00N 36°36' E 021°42'10311.9 360 / 121025.610.8 15.0 4.716.5
2019-Apr-18 18:21N 37°14' E 023°42'1715.3
2019-Apr-18 17:16N 37°30' E 023°43'415.4
2019-Apr-18 17:00N 37°34' E 023°44'815.1
2019-Apr-18 16:31N 37°42' E 023°42'815.8
2019-Apr-18 16:00N 37°49' E 023°37'714.6
2019-Apr-18 15:31N 37°56' E 023°37'1 2.2
2019-Apr-18 14:58N 37°56' E 023°38'0 0.0
2019-Apr-18 14:28N 37°56' E 023°38'0 0.0
2019-Apr-18 13:58N 37°56' E 023°38'0 0.0
2019-Apr-18 13:28N 37°56' E 023°38'0 0.0
2019-Apr-18 12:58N 37°56' E 023°38'0 0.0
2019-Apr-18 12:28N 37°56' E 023°38'0 0.0
2019-Apr-18 11:58N 37°56' E 023°38'0 0.0
2019-Apr-18 11:28N 37°56' E 023°38'0 0.0
2019-Apr-18 10:58N 37°56' E 023°38'0 0.0
2019-Apr-18 10:28N 37°56' E 023°38'0 0.0
2019-Apr-18 09:58N 37°56' E 023°38'0 0.0
2019-Apr-18 09:28N 37°56' E 023°38'0 0.0
2019-Apr-18 08:58N 37°56' E 023°38'0 0.0
2019-Apr-18 08:28N 37°56' E 023°38'0 0.0
2019-Apr-18 07:58N 37°56' E 023°38'0 0.0
2019-Apr-18 07:28N 37°56' E 023°38'0 0.0
2019-Apr-18 06:58N 37°56' E 023°38'0 0.0
2019-Apr-18 06:28N 37°56' E 023°38'0 0.0
2019-Apr-18 05:58N 37°56' E 023°38'0 0.0
2019-Apr-18 05:28N 37°56' E 023°38'0 0.0
2019-Apr-18 04:58N 37°56' E 023°38'0 0.0
2019-Apr-18 04:28N 37°56' E 023°38'0 0.0
2019-Apr-18 03:58N 37°56' E 023°38'0 0.0
2019-Apr-18 03:28N 37°56' E 023°38'0 0.0
2019-Apr-18 02:58N 37°56' E 023°38'0 0.0
2019-Apr-18 02:28N 37°56' E 023°38'0 0.0
2019-Apr-18 01:58N 37°56' E 023°38'0 0.0
2019-Apr-18 01:28N 37°56' E 023°38'1 1.9
2019-Apr-18 01:00N 37°56' E 023°37'3 6.9
2019-Apr-18 00:30N 37°53' E 023°38'713.5
2019-Apr-18 00:00N 37°47' E 023°42'714.1
2019-Apr-17 23:30N 37°40' E 023°45'713.7
2019-Apr-17 23:00N 37°34' E 023°47'714.1
2019-Apr-17 22:30N 37°27' E 023°48'51 9.5
2019-Apr-17 17:11N 37°13' E 024°49'213.5
2019-Apr-17 17:00N 37°14' E 024°52'713.5
2019-Apr-17 16:30N 37°17' E 024°59'713.2
2019-Apr-17 16:00N 37°21' E 025°06'3211.5
2019-Apr-17 16:00N 37°24' E 025°06'4 8.4 310 / 71019.627.0 16.8 8.317.1
2019-Apr-17 15:30N 37°27' E 025°10'613.0
2019-Apr-17 15:00N 37°28' E 025°18'1 1.7
2019-Apr-17 14:25N 37°28' E 025°19'0 0.0
2019-Apr-17 13:58N 37°28' E 025°19'0 0.0
2019-Apr-17 13:28N 37°28' E 025°19'0 0.0
2019-Apr-17 12:58N 37°28' E 025°19'0 0.0
2019-Apr-17 12:25N 37°28' E 025°19'0 0.0
2019-Apr-17 11:58N 37°28' E 025°19'0 0.0
2019-Apr-17 11:28N 37°28' E 025°19'0 0.0
2019-Apr-17 10:58N 37°28' E 025°19'0 0.0
2019-Apr-17 10:28N 37°28' E 025°19'0 0.0
2019-Apr-17 09:58N 37°28' E 025°19'0 0.0
2019-Apr-17 09:28N 37°28' E 025°19'0 0.0
2019-Apr-17 08:58N 37°28' E 025°19'0 0.0
2019-Apr-17 08:28N 37°28' E 025°19'0 0.0
2019-Apr-17 07:58N 37°28' E 025°19'0 0.0
2019-Apr-17 07:28N 37°28' E 025°19'0 0.0
2019-Apr-17 06:58N 37°28' E 025°19'0 0.0
2019-Apr-17 06:28N 37°28' E 025°19'0 0.0
2019-Apr-17 05:58N 37°28' E 025°19'0 0.0
2019-Apr-17 05:28N 37°28' E 025°19'0 0.0
2019-Apr-17 04:58N 37°28' E 025°19'0 0.0
2019-Apr-17 04:28N 37°28' E 025°19'0 0.0
2019-Apr-17 03:58N 37°28' E 025°19'1 2.2
2019-Apr-17 03:30N 37°28' E 025°18'5 9.1
2019-Apr-17 03:00N 37°28' E 025°12'4 7.9
2019-Apr-17 02:30N 37°25' E 025°08'4 8.0
2019-Apr-17 02:00N 37°22' E 025°06'4 7.8
2019-Apr-17 01:30N 37°18' E 025°04'4 8.0
2019-Apr-17 01:00N 37°14' E 025°02'4 7.9
2019-Apr-17 00:30N 37°11' E 025°00'4 7.9
2019-Apr-17 00:00N 37°07' E 024°58'3220.4
2019-Apr-17 00:00N 37°06' E 024°54'52 5.7 360 / 171019.610.8 14.9 4.616.9
2019-Apr-16 15:00N 36°18' E 025°18'49 3.3 360 / 251018.627.0 14.9 8.017.1
2019-Apr-16 00:00N 36°12' E 024°18'34914.6 320 / 71013.510.8 15.1 7.917.0
2019-Apr-15 00:00N 36°00' E 017°06'12215.2 260 / 161016.610.8 15.710.915.0
2019-Apr-14 16:00N 35°54' E 014°36'   280 / 161017.610.8 16.510.216.0
Track history (hours):
 
Tides and Currents Weather Stations Pressure Air Temp Water Temp Dewpoint Dewpoint Depression Visibility Wind Speed Wind Dir Waves Ship Positions

Jewel Of The Seas

Operator: Royal Caribbean Cruises Ltd

Last reported at 2019-Apr-24 09:00 UTC. Time now 2019-Apr-25 10:08 UTC.
Position N 37°47' E 016°02'.

Length 290 m; draft 8.6 m.

Type: Passenger vessel. MMSI: 311583000.

Date/timePositionNaut miles runAvg speedWind from/ knotsBaromVisibWave heightAir tempDewpointWater temp
2019-Apr-24 09:00N 37°47' E 016°02'2218.9
2019-Apr-24 07:50N 37°57' E 015°38'619.6
2019-Apr-24 07:30N 38°04' E 015°35'917.0
2019-Apr-24 07:00N 38°12' E 015°36'815.6
2019-Apr-24 06:30N 38°19' E 015°40'918.9
2019-Apr-24 06:00N 38°28' E 015°35'1019.8
2019-Apr-24 05:30N 38°37' E 015°30'1020.2
2019-Apr-24 05:01N 38°46' E 015°25'1019.6
2019-Apr-24 04:30N 38°54' E 015°18'7820.1
2019-Apr-24 00:37N 39°50' E 014°07'220.1
2019-Apr-24 00:30N 39°52' E 014°05'2120.3
2019-Apr-23 23:28N 40°07' E 013°46'1320.2
2019-Apr-23 22:49N 40°16' E 013°34'620.0
2019-Apr-23 22:30N 40°20' E 013°28'1020.0
2019-Apr-23 22:00N 40°28' E 013°19'1019.9
2019-Apr-23 21:30N 40°35' E 013°09'10819.5
2019-Apr-23 16:00N 42°00' E 011°42'126 6.1 140 / 281007.510.8 17.713.316.2
2019-Apr-22 19:18N 40°22' E 013°26'412.7
2019-Apr-22 19:00N 40°18' E 013°24'3220.9 130 / 301007.5 5.4 16.712.315.6
2019-Apr-22 17:28N 39°58' E 013°56'8618.2
2019-Apr-22 12:43N 38°56' E 015°14'418.2
2019-Apr-22 12:30N 38°53' E 015°18'918.3
2019-Apr-22 12:00N 38°45' E 015°24'918.4
2019-Apr-22 11:31N 38°38' E 015°30'918.0
2019-Apr-22 11:01N 38°29' E 015°35'918.2
2019-Apr-22 10:30N 38°21' E 015°40'714.2
2019-Apr-22 10:00N 38°14' E 015°38'815.8
2019-Apr-22 09:30N 38°07' E 015°36'1018.9
2019-Apr-22 09:00N 37°57' E 015°37'918.1
2019-Apr-22 08:29N 37°51' E 015°46'15418.2
2019-Apr-22 00:00N 39°30' E 018°18'14520.7 170 / 241021.6 5.4 15.911.316.3
2019-Apr-21 17:00N 41°54' E 018°36'45 1.9 190 / 121022.610.8 16.912.916.5
2019-Apr-20 18:00N 42°30' E 018°00'75 4.2 300 / 141024.627.0 18.210.915.2
2019-Apr-20 00:00N 41°18' E 018°30'10815.5 350 / 101026.610.8 16.411.415.9
2019-Apr-19 17:00N 39°36' E 019°18'21315.2 340 / 231025.627.0 17.1 9.816.1
2019-Apr-19 03:00N 36°36' E 021°42'10311.9 360 / 121025.610.8 15.0 4.716.5
2019-Apr-18 18:21N 37°14' E 023°42'1715.3
2019-Apr-18 17:16N 37°30' E 023°43'415.4
2019-Apr-18 17:00N 37°34' E 023°44'815.1
2019-Apr-18 16:31N 37°42' E 023°42'815.8
2019-Apr-18 16:00N 37°49' E 023°37'714.6
2019-Apr-18 15:31N 37°56' E 023°37'1 2.2
2019-Apr-18 14:58N 37°56' E 023°38'0 0.0
2019-Apr-18 14:28N 37°56' E 023°38'0 0.0
2019-Apr-18 13:58N 37°56' E 023°38'0 0.0
2019-Apr-18 13:28N 37°56' E 023°38'0 0.0
2019-Apr-18 12:58N 37°56' E 023°38'0 0.0
2019-Apr-18 12:28N 37°56' E 023°38'0 0.0
2019-Apr-18 11:58N 37°56' E 023°38'0 0.0
2019-Apr-18 11:28N 37°56' E 023°38'0 0.0
2019-Apr-18 10:58N 37°56' E 023°38'0 0.0
2019-Apr-18 10:28N 37°56' E 023°38'0 0.0
2019-Apr-18 09:58N 37°56' E 023°38'0 0.0
2019-Apr-18 09:28N 37°56' E 023°38'0 0.0
2019-Apr-18 08:58N 37°56' E 023°38'0 0.0
2019-Apr-18 08:28N 37°56' E 023°38'0 0.0
2019-Apr-18 07:58N 37°56' E 023°38'0 0.0
2019-Apr-18 07:28N 37°56' E 023°38'0 0.0
2019-Apr-18 06:58N 37°56' E 023°38'0 0.0
2019-Apr-18 06:28N 37°56' E 023°38'0 0.0
2019-Apr-18 05:58N 37°56' E 023°38'0 0.0
2019-Apr-18 05:28N 37°56' E 023°38'0 0.0
2019-Apr-18 04:58N 37°56' E 023°38'0 0.0
2019-Apr-18 04:28N 37°56' E 023°38'0 0.0
2019-Apr-18 03:58N 37°56' E 023°38'0 0.0
2019-Apr-18 03:28N 37°56' E 023°38'0 0.0
2019-Apr-18 02:58N 37°56' E 023°38'0 0.0
2019-Apr-18 02:28N 37°56' E 023°38'0 0.0
2019-Apr-18 01:58N 37°56' E 023°38'0 0.0
2019-Apr-18 01:28N 37°56' E 023°38'1 1.9
2019-Apr-18 01:00N 37°56' E 023°37'3 6.9
2019-Apr-18 00:30N 37°53' E 023°38'713.5
2019-Apr-18 00:00N 37°47' E 023°42'714.1
2019-Apr-17 23:30N 37°40' E 023°45'713.7
2019-Apr-17 23:00N 37°34' E 023°47'714.1
2019-Apr-17 22:30N 37°27' E 023°48'51 9.5
2019-Apr-17 17:11N 37°13' E 024°49'213.5
2019-Apr-17 17:00N 37°14' E 024°52'713.5
2019-Apr-17 16:30N 37°17' E 024°59'713.2
2019-Apr-17 16:00N 37°21' E 025°06'3211.5
2019-Apr-17 16:00N 37°24' E 025°06'4 8.4 310 / 71019.627.0 16.8 8.317.1
2019-Apr-17 15:30N 37°27' E 025°10'613.0
2019-Apr-17 15:00N 37°28' E 025°18'1 1.7
2019-Apr-17 14:25N 37°28' E 025°19'0 0.0
2019-Apr-17 13:58N 37°28' E 025°19'0 0.0
2019-Apr-17 13:28N 37°28' E 025°19'0 0.0
2019-Apr-17 12:58N 37°28' E 025°19'0 0.0
2019-Apr-17 12:25N 37°28' E 025°19'0 0.0
2019-Apr-17 11:58N 37°28' E 025°19'0 0.0
2019-Apr-17 11:28N 37°28' E 025°19'0 0.0
2019-Apr-17 10:58N 37°28' E 025°19'0 0.0
2019-Apr-17 10:28N 37°28' E 025°19'0 0.0
2019-Apr-17 09:58N 37°28' E 025°19'0 0.0
2019-Apr-17 09:28N 37°28' E 025°19'0 0.0
2019-Apr-17 08:58N 37°28' E 025°19'0 0.0
2019-Apr-17 08:28N 37°28' E 025°19'0 0.0
2019-Apr-17 07:58N 37°28' E 025°19'0 0.0
2019-Apr-17 07:28N 37°28' E 025°19'0 0.0
2019-Apr-17 06:58N 37°28' E 025°19'0 0.0
2019-Apr-17 06:28N 37°28' E 025°19'0 0.0
2019-Apr-17 05:58N 37°28' E 025°19'0 0.0
2019-Apr-17 05:28N 37°28' E 025°19'0 0.0
2019-Apr-17 04:58N 37°28' E 025°19'0 0.0
2019-Apr-17 04:28N 37°28' E 025°19'0 0.0
2019-Apr-17 03:58N 37°28' E 025°19'1 2.2
2019-Apr-17 03:30N 37°28' E 025°18'5 9.1
2019-Apr-17 03:00N 37°28' E 025°12'4 7.9
2019-Apr-17 02:30N 37°25' E 025°08'4 8.0
2019-Apr-17 02:00N 37°22' E 025°06'4 7.8
2019-Apr-17 01:30N 37°18' E 025°04'4 8.0
2019-Apr-17 01:00N 37°14' E 025°02'4 7.9
2019-Apr-17 00:30N 37°11' E 025°00'4 7.9
2019-Apr-17 00:00N 37°07' E 024°58'3220.4
2019-Apr-17 00:00N 37°06' E 024°54'52 5.7 360 / 171019.610.8 14.9 4.616.9
2019-Apr-16 15:00N 36°18' E 025°18'49 3.3 360 / 251018.627.0 14.9 8.017.1
2019-Apr-16 00:00N 36°12' E 024°18'34914.6 320 / 71013.510.8 15.1 7.917.0
2019-Apr-15 00:00N 36°00' E 017°06'12215.2 260 / 161016.610.8 15.710.915.0
2019-Apr-14 16:00N 35°54' E 014°36'   280 / 161017.610.8 16.510.216.0

Dump ship's entire track history